createdAt,value
2019-06-25T00:00:14.519Z,99881.73
2019-06-25T00:02:46.057Z,99882.58
2019-06-25T00:05:17.672Z,99879.42
2019-06-25T00:07:48.024Z,99868.48
2019-06-25T00:10:19.545Z,99873.03
2019-06-25T00:12:50.265Z,99863.95
2019-06-25T00:15:21.294Z,99872.55
2019-06-25T00:17:51.469Z,99865.38
2019-06-25T00:20:21.498Z,99873.39
2019-06-25T00:22:52.461Z,99879.56
2019-06-25T00:25:24.596Z,99871.85
2019-06-25T00:27:56.935Z,99876.70
2019-06-25T00:30:28.326Z,99872.44
2019-06-25T00:32:58.727Z,99871.41
2019-06-25T00:35:28.691Z,99785.02
2019-06-25T00:37:59.670Z,99870.13
2019-06-25T00:40:32.914Z,99870.66
2019-06-25T00:43:06.562Z,99868.30
2019-06-25T00:45:39.815Z,99871.55
2019-06-25T00:48:14.419Z,99859.53
2019-06-25T00:50:50.516Z,99867.05
2019-06-25T00:53:21.698Z,99866.78
2019-06-25T00:55:51.910Z,99861.98
2019-06-25T00:58:22.149Z,99856.67
2019-06-25T01:00:52.503Z,99854.80
2019-06-25T01:03:27.809Z,99764.95
2019-06-25T01:05:58.163Z,99850.30
2019-06-25T03:22:04.178Z,99831.57
2019-06-25T03:24:34.110Z,99833.73
2019-06-25T03:27:04.559Z,99827.33
2019-06-25T03:29:34.408Z,99835.56
2019-06-25T03:32:09.744Z,99829.70
2019-06-25T03:34:36.387Z,99831.84
2019-06-25T03:37:06.365Z,99839.58
2019-06-25T03:39:36.271Z,99837.42
2019-06-25T03:42:06.440Z,99840.09
2019-06-25T03:44:36.219Z,99847.27
2019-06-25T03:47:06.346Z,99850.23
2019-06-25T03:49:36.723Z,99852.08
2019-06-25T03:52:06.597Z,99850.75
2019-06-25T03:54:36.557Z,99847.53
2019-06-25T03:57:07.120Z,99842.47
2019-06-25T03:59:37.008Z,99845.14
2019-06-25T04:02:16.973Z,99842.98
2019-06-25T04:04:38.967Z,99844.84
2019-06-25T04:07:08.787Z,99844.29
2019-06-25T04:09:38.673Z,99843.49
2019-06-25T04:12:08.857Z,99844.30
2019-06-25T04:14:38.698Z,99852.02
2019-06-25T04:17:08.798Z,99849.62
2019-06-25T04:19:38.782Z,99854.42
2019-06-25T04:22:08.775Z,99845.06
2019-06-25T04:24:38.971Z,99849.31
2019-06-25T04:27:09.552Z,99846.89
2019-06-25T04:29:39.610Z,99765.17
2019-06-25T04:32:10.231Z,99859.35
2019-06-25T04:34:40.073Z,99862.26
2019-06-25T04:37:09.838Z,99861.43
2019-06-25T04:39:39.892Z,99857.92
2019-06-25T04:42:10.265Z,99860.56
2019-06-25T04:44:40.758Z,99866.94
2019-06-25T04:47:10.989Z,99867.97
2019-06-25T04:49:43.344Z,99867.13
2019-06-25T04:52:14.936Z,99864.42
2019-06-25T04:54:45.863Z,99866.52
2019-06-25T04:57:16.552Z,99865.66
2019-06-25T04:59:47.290Z,99867.98
2019-06-25T05:02:17.457Z,99873.56
2019-06-25T05:04:48.074Z,99872.48
2019-06-25T05:07:21.236Z,99869.50
2019-06-25T05:09:51.412Z,99861.97
2019-06-25T05:12:21.954Z,99864.06
2019-06-25T05:14:53.905Z,99861.86
2019-06-25T05:17:25.347Z,99784.78
2019-06-25T05:19:57.650Z,99875.69
2019-06-25T05:22:27.853Z,99870.02
2019-06-25T05:24:58.131Z,99852.97
2019-06-25T05:27:27.977Z,99877.98
2019-06-25T05:29:58.030Z,99874.76
2019-06-25T05:32:28.507Z,99869.09
2019-06-25T05:34:58.716Z,99787.99
2019-06-25T05:37:33.949Z,99866.29
2019-06-25T05:40:05.118Z,99855.80
2019-06-25T05:42:35.355Z,99857.39
2019-06-25T05:45:06.103Z,99861.06
2019-06-25T05:47:36.205Z,99855.06
2019-06-25T05:50:08.751Z,99851.77
2019-06-25T05:52:39.506Z,99858.38
2019-06-25T05:55:09.581Z,99861.47
2019-06-25T05:57:40.492Z,99858.03
2019-06-25T06:00:12.796Z,99860.00
2019-06-25T06:02:42.834Z,99857.88
2019-06-25T06:05:14.499Z,99857.89
2019-06-25T06:07:44.705Z,99857.26
2019-06-25T06:10:16.577Z,99862.30
2019-06-25T06:12:46.985Z,99856.01
2019-06-25T06:15:17.387Z,99858.25
2019-06-25T06:18:39.383Z,99857.55
2019-06-25T06:21:13.955Z,99867.02
2019-06-25T06:23:43.966Z,99862.32
2019-06-25T06:26:18.540Z,99854.70
2019-06-25T06:28:45.661Z,99859.01
2019-06-25T06:31:18.306Z,99859.26
2019-06-25T06:33:50.410Z,99854.13
2019-06-25T06:36:20.148Z,99851.09
2019-06-25T06:38:50.433Z,99859.58
2019-06-25T06:41:21.676Z,99856.37
2019-06-25T06:43:52.128Z,99851.53
2019-06-25T06:46:24.514Z,99786.16
2019-06-25T06:48:54.600Z,99848.92
2019-06-25T06:51:24.818Z,99856.93
2019-06-25T06:53:55.279Z,99851.45
2019-06-25T06:56:27.548Z,99847.59
2019-06-25T06:58:58.033Z,99849.52
2019-06-25T07:01:28.554Z,99852.72
2019-06-25T07:03:58.588Z,99851.71
2019-06-25T07:06:31.275Z,99849.56
2019-06-25T07:09:01.679Z,99847.05
2019-06-25T07:11:31.783Z,99847.87
2019-06-25T07:14:02.174Z,99841.52
2019-06-25T07:16:32.301Z,99842.38
2019-06-25T07:19:02.415Z,99841.27
2019-06-25T07:21:34.273Z,99844.41
2019-06-25T07:24:05.205Z,99841.34
2019-06-25T07:26:35.390Z,99840.37
2019-06-25T07:29:06.521Z,99846.16
2019-06-25T07:31:37.758Z,99845.86
2019-06-25T07:34:09.901Z,99845.02
2019-06-25T07:36:40.713Z,99836.38
2019-06-25T07:39:12.877Z,99838.42
2019-06-25T07:41:43.344Z,99836.27
2019-06-25T07:44:14.733Z,99832.88
2019-06-25T07:46:44.809Z,99836.19
2019-06-25T07:49:17.717Z,99833.69
2019-06-25T07:51:47.859Z,99833.69
2019-06-25T07:54:18.023Z,99833.36
2019-06-25T07:56:48.723Z,99831.67
2019-06-25T07:59:18.881Z,99837.56
2019-06-25T08:01:48.952Z,99834.26
2019-06-25T08:04:25.448Z,99834.85
2019-06-25T08:06:52.728Z,99835.85
2019-06-25T08:09:23.115Z,99826.50
2019-06-25T08:11:53.471Z,99823.92
2019-06-25T08:14:23.848Z,99824.94
2019-06-25T08:16:54.505Z,99826.61
2019-06-25T08:19:24.752Z,99773.00
2019-06-25T08:21:56.440Z,99818.68
2019-06-25T08:24:26.703Z,99809.63
2019-06-25T08:26:57.549Z,99811.34
2019-06-25T08:29:28.495Z,99810.31
2019-06-25T08:32:00.130Z,99807.27
2019-06-25T08:34:41.493Z,99799.29
2019-06-25T08:37:03.468Z,99803.54
2019-06-25T08:39:33.899Z,99805.77
2019-06-25T08:42:04.140Z,99802.61
2019-06-25T08:44:34.463Z,99792.60
2019-06-25T08:47:04.883Z,99800.97
2019-06-25T08:49:35.141Z,99803.42
2019-06-25T08:52:05.737Z,99804.52
2019-06-25T08:54:35.588Z,99742.64
2019-06-25T08:57:05.534Z,99801.21
2019-06-25T08:59:35.755Z,99800.83
2019-06-25T09:02:06.173Z,99804.06
2019-06-25T09:04:36.153Z,99808.29
2019-06-25T09:07:06.437Z,99804.30
2019-06-25T09:09:36.465Z,99806.83
2019-06-25T09:12:06.770Z,99807.87
2019-06-25T09:14:36.700Z,99804.77
2019-06-25T09:17:07.238Z,99808.17
2019-06-25T09:19:49.709Z,99803.42
2019-06-25T09:22:09.587Z,99807.38
2019-06-25T09:24:40.480Z,99808.65
2019-06-25T09:27:10.836Z,99813.47
2019-06-25T09:29:40.955Z,99804.61
2019-06-25T09:32:11.427Z,99814.25
2019-06-25T09:34:41.577Z,99812.41
2019-06-25T09:37:11.783Z,99810.09
2019-06-25T09:39:41.516Z,99804.64
2019-06-25T09:42:10.135Z,99810.93
2019-06-25T09:44:38.690Z,99800.33
2019-06-25T09:47:10.249Z,99750.26
2019-06-25T09:49:41.650Z,99810.11
2019-06-25T09:52:14.138Z,99802.37
2019-06-25T09:54:45.622Z,99805.32
2019-06-25T09:57:16.506Z,99802.59
2019-06-25T09:59:48.779Z,99801.50
2019-06-25T10:02:20.236Z,99701.69
2019-06-25T10:04:51.929Z,99804.92
2019-06-25T10:07:23.784Z,99797.38
2019-06-25T10:09:54.790Z,99797.14
2019-06-25T10:12:25.639Z,99800.44
2019-06-25T10:14:55.852Z,99796.75
2019-06-25T10:17:29.203Z,99803.37
2019-06-25T10:20:01.224Z,99794.94
2019-06-25T10:22:32.988Z,99798.96
2019-06-25T10:25:08.135Z,99803.07
2019-06-25T10:27:39.052Z,99794.89
2019-06-25T10:30:17.122Z,99792.00
2019-06-25T10:32:47.418Z,99786.55
2019-06-25T10:35:18.309Z,99788.34
2019-06-25T10:37:50.451Z,99788.20
2019-06-25T10:40:20.706Z,99789.49
2019-06-25T10:42:52.527Z,99791.30
2019-06-25T10:45:23.582Z,99780.63
2019-06-25T10:47:55.379Z,99775.34
2019-06-25T10:50:26.597Z,99781.84
2019-06-25T10:52:57.526Z,99777.76
2019-06-25T10:55:28.018Z,99775.87
2019-06-25T10:57:58.082Z,99779.38
2019-06-25T11:00:39.934Z,99771.71
2019-06-25T11:03:10.011Z,99763.44
2019-06-25T11:05:40.597Z,99760.58
2019-06-25T11:08:12.486Z,99761.75
2019-06-25T11:10:44.386Z,99775.34
2019-06-25T11:13:14.979Z,99769.02
2019-06-25T11:15:45.499Z,99767.87
2019-06-25T11:18:17.127Z,99758.26
2019-06-25T11:20:47.721Z,99759.27
2019-06-25T11:23:19.694Z,99769.52
2019-06-25T11:26:16.166Z,99733.14
2019-06-25T11:28:27.335Z,99762.72
2019-06-25T11:30:58.020Z,99754.02
2019-06-25T11:33:31.834Z,99689.39
2019-06-25T11:36:01.685Z,99758.30
2019-06-25T11:38:40.164Z,99758.55
2019-06-25T11:41:12.077Z,99764.31
2019-06-25T11:43:46.574Z,99759.67
2019-06-25T11:46:19.705Z,99754.95
2019-06-25T11:48:51.473Z,99751.46
2019-06-25T11:51:27.982Z,99754.30
2019-06-25T11:53:59.215Z,99750.84
2019-06-25T11:56:33.165Z,99747.70
2019-06-25T11:59:11.671Z,99744.16
2019-06-25T12:01:43.905Z,99731.27
2019-06-25T12:04:15.661Z,99736.66
2019-06-25T12:06:53.823Z,99738.52
2019-06-25T12:09:18.629Z,99729.75
2019-06-25T12:11:49.211Z,99733.95
2019-06-25T12:14:20.332Z,99735.65
2019-06-25T12:16:52.905Z,99729.28
2019-06-25T12:19:22.845Z,99721.91
2019-06-25T12:21:54.373Z,99728.44
2019-06-25T12:24:27.789Z,99727.94
2019-06-25T12:26:58.532Z,99739.16
2019-06-25T12:29:31.875Z,99723.92
2019-06-25T12:32:04.589Z,99670.83
2019-06-25T12:34:36.672Z,99730.86
2019-06-25T12:37:10.112Z,99726.64
2019-06-25T12:39:40.689Z,99728.06
2019-06-25T12:42:14.750Z,99723.82
2019-06-25T12:44:46.911Z,99718.77
2019-06-25T12:47:19.393Z,99714.48
2019-06-25T12:49:50.086Z,99707.10
2019-06-25T12:52:28.989Z,99712.98
2019-06-25T12:55:00.052Z,99714.38
2019-06-25T12:57:33.578Z,99708.38
2019-06-25T13:00:10.229Z,99647.88
2019-06-25T13:02:40.649Z,99706.27
2019-06-25T13:05:13.723Z,99698.77
2019-06-25T13:07:48.031Z,99699.20
2019-06-25T13:10:18.799Z,99696.10
2019-06-25T13:12:49.623Z,99693.38
2019-06-25T13:15:23.489Z,99699.44
2019-06-25T13:17:53.875Z,99694.41
2019-06-25T13:20:27.379Z,99692.81
2019-06-25T13:23:03.533Z,99685.77
2019-06-25T13:25:35.930Z,99686.17
2019-06-25T13:28:08.923Z,99627.25
2019-06-25T13:30:39.781Z,99684.00
2019-06-25T13:33:10.629Z,99678.92
2019-06-25T13:35:42.019Z,99670.72
2019-06-25T13:38:14.434Z,99678.13
2019-06-25T13:40:49.839Z,99677.53
2019-06-25T13:43:25.616Z,99677.92
2019-06-25T13:46:05.828Z,99672.83
2019-06-25T13:48:36.694Z,99681.27
2019-06-25T13:51:13.381Z,99670.48
2019-06-25T13:53:49.397Z,99669.50
2019-06-25T13:56:19.741Z,99600.26
2019-06-25T13:58:58.170Z,99668.55
2019-06-25T14:01:33.627Z,99662.67
2019-06-25T14:04:04.958Z,99659.94
2019-06-25T14:09:30.249Z,99656.39
2019-06-25T14:12:03.158Z,99588.52
2019-06-25T14:14:39.258Z,99649.95
2019-06-25T14:17:12.466Z,99652.48
2019-06-25T14:19:47.743Z,99651.70
2019-06-25T14:22:22.519Z,99642.50
2019-06-25T14:24:57.495Z,99646.78
2019-06-25T14:28:06.008Z,99647.96
2019-06-25T14:30:35.974Z,99647.75
2019-06-25T14:33:06.867Z,99646.36
2019-06-25T14:35:47.227Z,99646.93
2019-06-25T14:38:17.188Z,99652.17
2019-06-25T14:40:49.976Z,99646.30
2019-06-25T14:43:37.379Z,99640.77
2019-06-25T14:46:08.756Z,99632.67
2019-06-25T14:48:40.058Z,99634.33
2019-06-25T14:51:12.543Z,99631.89
2019-06-25T14:53:43.108Z,99627.72
2019-06-25T14:56:14.560Z,99627.30
2019-06-25T14:58:46.010Z,99621.91
2019-06-25T15:01:23.671Z,99629.20
2019-06-25T15:03:54.454Z,99624.66
2019-06-25T15:06:37.630Z,99624.34
2019-06-25T15:09:11.635Z,99555.31
2019-06-25T15:11:45.731Z,99554.66
2019-06-25T15:14:33.305Z,99617.14
2019-06-25T15:17:14.760Z,99616.76
2019-06-25T15:19:47.207Z,99615.59
2019-06-25T15:22:21.803Z,99603.86
2019-06-25T15:24:56.729Z,99605.41
2019-06-25T15:27:37.271Z,99607.94
2019-06-25T15:30:18.783Z,99604.00
2019-06-25T15:32:55.770Z,99606.09
2019-06-25T15:35:26.914Z,99601.27
2019-06-25T15:37:58.555Z,99597.70
2019-06-25T15:40:31.877Z,99595.91
2019-06-25T15:43:07.737Z,99600.75
2019-06-25T15:45:38.646Z,99592.38
2019-06-25T15:48:17.924Z,99594.05
2019-06-25T15:50:53.582Z,99600.58
2019-06-25T15:53:28.154Z,99590.30
2019-06-25T15:55:59.718Z,99589.63
2019-06-25T15:58:30.543Z,99593.57
2019-06-25T16:01:05.160Z,99596.65
2019-06-25T16:03:42.130Z,99601.61
2019-06-25T16:06:15.132Z,99592.79
2019-06-25T16:09:02.263Z,99591.55
2019-06-25T16:11:21.374Z,99591.30
2019-06-25T16:13:52.714Z,99588.36
2019-06-25T16:16:22.820Z,99592.03
2019-06-25T16:18:53.279Z,99587.58
2019-06-25T16:21:25.086Z,99590.05
2019-06-25T16:24:00.207Z,99591.48
2019-06-25T16:26:38.749Z,99592.58
2019-06-25T16:29:19.278Z,99545.36
2019-06-25T16:31:52.294Z,99598.78
2019-06-25T16:34:22.812Z,99590.28
2019-06-25T16:36:57.419Z,99590.48
2019-06-25T16:39:31.265Z,99591.66
2019-06-25T16:42:01.370Z,99591.23
2019-06-25T16:44:31.424Z,99590.27
2019-06-25T16:47:06.007Z,99590.47
2019-06-25T16:49:38.662Z,99589.31
2019-06-25T16:52:09.005Z,99585.91
2019-06-25T16:54:44.787Z,99590.65
2019-06-25T16:57:23.671Z,99588.63
2019-06-25T16:59:55.555Z,99596.68
2019-06-25T17:02:33.831Z,99594.47
2019-06-25T17:05:01.709Z,99595.58
2019-06-25T17:07:33.900Z,99592.72
2019-06-25T17:10:05.964Z,99527.44
2019-06-25T17:12:44.556Z,99592.25
2019-06-25T17:15:17.785Z,99594.19
2019-06-25T17:17:48.090Z,99596.84
2019-06-25T17:20:26.586Z,99593.05
2019-06-25T17:23:07.686Z,99538.66
2019-06-25T17:25:30.554Z,99599.25
2019-06-25T17:28:01.414Z,99599.76
2019-06-25T17:30:32.162Z,99599.28
2019-06-25T17:33:03.906Z,99597.13
2019-06-25T17:35:34.723Z,99606.02
2019-06-25T17:38:05.481Z,99606.05
2019-06-25T17:40:40.318Z,99607.94
2019-06-25T17:43:10.904Z,99601.78
2019-06-25T17:45:42.667Z,99609.15
2019-06-25T17:48:14.743Z,99604.03
2019-06-25T17:50:46.597Z,99605.63
2019-06-25T17:53:17.067Z,99606.55
2019-06-25T17:55:53.074Z,99607.67
2019-06-25T17:58:23.935Z,99605.13
2019-06-25T18:01:03.534Z,99606.89
2019-06-25T18:03:33.825Z,99612.09
2019-06-25T18:06:12.448Z,99606.69
2019-06-25T18:08:47.270Z,99591.27
2019-06-25T18:11:17.534Z,99615.92
2019-06-25T18:13:47.896Z,99617.00
2019-06-25T18:16:18.395Z,99614.41
2019-06-25T18:18:49.786Z,99612.72
2019-06-25T18:21:44.028Z,99613.59
2019-06-25T18:24:52.962Z,99620.67
2019-06-25T18:27:39.677Z,99547.80
2019-06-25T18:30:25.091Z,99629.61
2019-06-25T18:32:58.646Z,99612.80
2019-06-25T18:35:33.612Z,99619.02
2019-06-25T18:38:08.251Z,99620.22
2019-06-25T18:40:45.165Z,99624.50
2019-06-25T18:43:18.867Z,99622.98
2019-06-25T18:46:12.129Z,99629.06
2019-06-25T18:48:50.320Z,99628.99
2019-06-25T18:51:21.031Z,99633.63
2019-06-25T18:53:53.208Z,99638.09
2019-06-25T18:56:34.792Z,99640.81
2019-06-25T18:59:07.795Z,99643.44
2019-06-25T19:01:44.851Z,99643.41
2019-06-25T19:04:16.707Z,99645.30
2019-06-25T19:06:47.645Z,99646.76
2019-06-25T19:09:29.721Z,99659.59
2019-06-25T19:12:00.634Z,99587.72
2019-06-25T19:14:56.702Z,99655.61
2019-06-25T19:17:30.404Z,99659.36
2019-06-25T19:20:21.655Z,99667.02
2019-06-25T19:22:52.286Z,99675.94
2019-06-25T19:25:23.221Z,99669.64
2019-06-25T19:27:53.821Z,99675.27
2019-06-25T19:30:35.560Z,99674.77
2019-06-25T19:33:06.686Z,99681.09
2019-06-25T19:35:40.303Z,99676.91
2019-06-25T19:38:12.815Z,99683.09
2019-06-25T19:41:15.991Z,99688.01
2019-06-25T19:43:55.406Z,99682.09
2019-06-25T19:46:32.462Z,99692.34
2019-06-25T19:49:20.069Z,99694.22
2019-06-25T19:51:52.121Z,99702.41
2019-06-25T19:54:58.373Z,99699.73
2019-06-25T19:57:38.121Z,99701.58
2019-06-25T20:00:18.531Z,99635.81
2019-06-25T20:02:50.808Z,99704.14
2019-06-25T20:05:51.108Z,99718.80
2019-06-25T20:08:25.911Z,99710.03
2019-06-25T20:11:11.189Z,99708.33
2019-06-25T20:13:29.440Z,99712.53
2019-06-25T20:16:00.468Z,99709.70
2019-06-25T20:18:31.088Z,99715.80
2019-06-25T20:21:05.438Z,99711.61
2019-06-25T20:23:41.348Z,99723.88
2019-06-25T20:26:13.784Z,99720.83
2019-06-25T20:28:44.758Z,99725.77
2019-06-25T20:31:15.622Z,99728.03
2019-06-25T20:33:49.293Z,99728.90
2019-06-25T20:36:35.541Z,99729.63
2019-06-25T20:39:09.143Z,99731.73
2019-06-25T20:41:42.221Z,99730.09
2019-06-25T20:44:15.953Z,99740.09
2019-06-25T20:47:01.921Z,99733.19
2019-06-25T20:49:53.507Z,99734.03
2019-06-25T20:52:50.708Z,99739.81
2019-06-25T20:55:22.931Z,99733.67
2019-06-25T21:01:06.040Z,99736.05
2019-06-25T21:03:53.096Z,99738.31
2019-06-25T21:06:24.867Z,99744.45
2019-06-25T21:08:55.054Z,99740.47
2019-06-25T21:11:31.236Z,99742.06
2019-06-25T21:13:58.712Z,99742.80
2019-06-25T21:16:32.278Z,99740.61
2019-06-25T21:19:05.468Z,99746.19
2019-06-25T21:21:36.560Z,99754.55
2019-06-25T21:24:07.990Z,99756.94
2019-06-25T21:26:40.239Z,99754.66
2019-06-25T21:29:14.145Z,99758.09
2019-06-25T21:31:50.546Z,99759.80
2019-06-25T21:34:26.144Z,99762.95
2019-06-25T21:36:56.837Z,99767.96
2019-06-25T21:39:27.410Z,99609.63
2019-06-25T21:42:04.763Z,99759.08
2019-06-25T21:44:43.431Z,99688.66
2019-06-25T21:47:13.854Z,99768.61
2019-06-25T21:49:45.709Z,99767.26
2019-06-25T21:52:16.332Z,99762.92
2019-06-25T21:55:17.798Z,99767.44
2019-06-25T21:57:49.817Z,99774.09
2019-06-25T22:00:49.470Z,99777.27
2019-06-25T22:03:27.859Z,99770.11
2019-06-25T22:05:58.739Z,99778.10
2019-06-25T22:08:28.898Z,99779.36
2019-06-25T22:11:02.782Z,99786.01
2019-06-25T22:13:35.764Z,99786.22
2019-06-25T22:16:29.157Z,99788.73
2019-06-25T22:19:16.370Z,99786.80
2019-06-25T22:21:58.976Z,99787.64
2019-06-25T22:24:48.773Z,99790.04
2019-06-25T22:27:19.719Z,99789.14
2019-06-25T22:29:51.704Z,99792.97
2019-06-25T22:32:24.988Z,99795.05
2019-06-25T22:34:55.209Z,99790.44
2019-06-25T22:37:25.660Z,99797.85
2019-06-25T22:39:56.110Z,99793.13
2019-06-25T22:42:36.731Z,99791.62
2019-06-25T22:45:00.183Z,99794.14
2019-06-25T22:47:30.350Z,99804.64
2019-06-25T22:50:00.434Z,99801.18
2019-06-25T22:52:30.741Z,99792.45
2019-06-25T22:55:01.410Z,99704.83
2019-06-25T22:57:31.994Z,99793.38
2019-06-25T23:00:01.946Z,99788.37
2019-06-25T23:02:34.006Z,99785.82
2019-06-25T23:05:04.197Z,99783.12
2019-06-25T23:07:34.648Z,99784.57
2019-06-25T23:10:06.529Z,99777.44
2019-06-25T23:12:52.633Z,99780.55
2019-06-25T23:15:09.413Z,99780.13
2019-06-25T23:17:39.546Z,99776.72
2019-06-25T23:20:10.086Z,99777.94
2019-06-25T23:22:41.307Z,99777.48
2019-06-25T23:25:12.408Z,99775.66
2019-06-25T23:27:43.634Z,99770.59
2019-06-25T23:30:13.905Z,99777.05
2019-06-25T23:32:44.119Z,99774.44
2019-06-25T23:35:14.248Z,99776.08
2019-06-25T23:37:44.344Z,99773.73
2019-06-25T23:40:15.043Z,99769.80
2019-06-25T23:42:45.483Z,99780.28
2019-06-25T23:45:15.921Z,99768.82
2019-06-25T23:47:46.506Z,99764.84
2019-06-25T23:50:17.394Z,99771.13
2019-06-25T23:52:48.336Z,99769.05
2019-06-25T23:55:18.909Z,99765.87
2019-06-25T23:57:49.070Z,99768.30
